Time;durP1;ratioP1;P1;durP2;ratioP2;P2;SDS_P1;SDS_P2;PMS_P1;PMS_P2;Temp;Humidity;BMP_temperature;BMP_pressure;BME280_temperature;BME280_humidity;BME280_pressure;Samples;Min_cycle;Max_cycle;Signal;HPM_P1;HPM_P2
2022/05/07 00:00:20;;;;;;;1.75;1.38;;;;;;;21.20;48.66;102297.31;5043768;28;20037;-49
2022/05/07 00:02:45;;;;;;;1.67;1.55;;;;;;;21.20;48.44;102304.59;5044592;28;20566;-50
2022/05/07 00:05:10;;;;;;;1.98;1.45;;;;;;;21.19;48.54;102301.00;5044400;28;20060;-52
2022/05/07 00:07:36;;;;;;;1.85;1.60;;;;;;;21.19;48.55;102298.28;5044269;28;20036;-48
2022/05/07 00:10:01;;;;;;;1.90;1.67;;;;;;;21.19;48.48;102292.03;5043915;28;20029;-50
2022/05/07 00:12:26;;;;;;;2.53;1.88;;;;;;;21.17;48.53;102292.19;5042654;28;20025;-47
2022/05/07 00:14:51;;;;;;;2.00;1.80;;;;;;;21.18;48.44;102287.63;5043586;28;20021;-49
2022/05/07 00:20:01;;;;;;;2.13;1.90;;;;;;;21.18;48.58;102284.94;5044245;28;20080;-45
2022/05/07 00:22:26;;;;;;;2.63;1.80;;;;;;;21.17;48.19;102283.25;5046851;28;20029;-49
2022/05/07 00:24:52;;;;;;;1.85;1.50;;;;;;;21.16;48.17;102284.25;5043776;28;20060;-48
2022/05/07 00:27:17;;;;;;;2.00;1.85;;;;;;;21.16;48.32;102276.97;5042984;28;20056;-49
2022/05/07 00:29:42;;;;;;;1.73;1.55;;;;;;;21.15;48.31;102275.28;5043392;28;20025;-47
2022/05/07 00:32:08;;;;;;;1.85;1.55;;;;;;;21.15;48.00;102278.00;5042725;28;20033;-47
2022/05/07 00:34:33;;;;;;;1.88;1.73;;;;;;;21.15;48.45;102274.41;5043890;28;20025;-45
2022/05/07 00:36:58;;;;;;;2.13;1.88;;;;;;;21.12;48.36;102270.16;5043741;28;20049;-46
2022/05/07 00:39:25;;;;;;;2.30;2.05;;;;;;;21.14;48.06;102272.72;5043453;28;20040;-48
2022/05/07 00:41:51;;;;;;;2.15;1.95;;;;;;;21.14;48.43;102265.44;5043696;28;20034;-49
2022/05/07 00:44:16;;;;;;;2.05;1.67;;;;;;;21.13;48.33;102271.88;5042856;28;20052;-52
2022/05/07 00:46:41;;;;;;;2.78;2.30;;;;;;;21.13;47.90;102266.44;5044016;28;20025;-45
2022/05/07 00:49:06;;;;;;;2.92;2.22;;;;;;;21.13;48.37;102266.44;5043595;28;20115;-46
2022/05/07 00:51:35;;;;;;;2.22;1.98;;;;;;;21.13;48.04;102260.19;5043894;28;20029;-47
2022/05/07 00:54:08;;;;;;;2.25;1.92;;;;;;;21.13;48.20;102265.59;5043122;28;20049;-49
2022/05/07 00:56:34;;;;;;;2.17;1.98;;;;;;;21.11;47.90;102263.06;5043893;28;20037;-49
2022/05/07 00:59:00;;;;;;;2.42;1.92;;;;;;;21.11;48.14;102268.47;5042166;28;20057;-45
2022/05/07 01:01:26;;;;;;;2.58;2.22;;;;;;;21.11;48.04;102256.78;5042012;28;20068;-47
2022/05/07 01:03:52;;;;;;;2.42;2.08;;;;;;;21.11;47.97;102259.47;5043420;28;20025;-51
2022/05/07 01:06:18;;;;;;;2.30;2.10;;;;;;;21.07;47.79;102252.66;5043797;28;20608;-47
2022/05/07 01:08:45;;;;;;;1.92;1.73;;;;;;;21.11;48.11;102257.66;5043300;28;20029;-50
2022/05/07 01:11:10;;;;;;;2.33;1.92;;;;;;;21.09;48.20;102258.78;5043873;28;20025;-51
2022/05/07 01:13:37;;;;;;;2.13;1.90;;;;;;;21.10;48.04;102258.63;5042850;28;20103;-49
2022/05/07 01:16:03;;;;;;;2.30;2.10;;;;;;;21.09;48.15;102258.78;5041973;28;20033;-49
2022/05/07 01:18:28;;;;;;;2.95;2.05;;;;;;;21.08;48.07;102257.09;5042114;28;20038;-53
2022/05/07 01:20:54;;;;;;;2.08;1.75;;;;;;;21.08;48.08;102252.53;5043443;28;20029;-48
2022/05/07 01:23:20;;;;;;;2.10;1.90;;;;;;;21.08;47.96;102249.84;5045626;28;20036;-46
2022/05/07 01:25:45;;;;;;;2.47;1.88;;;;;;;21.05;47.77;102244.72;5043104;28;20049;-47
2022/05/07 01:28:10;;;;;;;2.25;2.05;;;;;;;21.07;48.32;102248.13;5043106;28;20055;-45
2022/05/07 01:30:35;;;;;;;2.58;2.38;;;;;;;21.02;47.95;102241.47;5042715;28;20033;-46
2022/05/07 01:33:01;;;;;;;2.53;2.30;;;;;;;21.07;47.68;102244.56;5043131;28;20042;-47
2022/05/07 01:35:26;;;;;;;2.88;2.33;;;;;;;21.06;47.80;102246.41;5043503;28;20041;-47
2022/05/07 01:37:51;;;;;;;3.45;2.25;;;;;;;21.06;48.00;102245.56;5043092;28;20065;-50
2022/05/07 01:40:17;;;;;;;2.22;1.85;;;;;;;21.05;47.98;102241.16;5045965;28;20025;-48
2022/05/07 01:42:42;;;;;;;2.00;1.75;;;;;;;21.04;47.75;102237.63;5047027;28;20137;-49
2022/05/07 01:45:08;;;;;;;2.03;1.85;;;;;;;21.02;47.94;102223.38;5046614;28;20029;-52
2022/05/07 01:50:23;;;;;;;2.35;2.15;;;;;;;21.03;47.76;102229.66;5047234;28;20055;-50
2022/05/07 01:52:49;;;;;;;2.67;2.17;;;;;;;21.03;47.76;102227.81;5046671;28;20060;-48
2022/05/07 01:55:14;;;;;;;2.03;1.75;;;;;;;21.02;47.68;102226.09;5046602;28;20029;-51
2022/05/07 01:57:39;;;;;;;2.53;2.20;;;;;;;21.00;47.73;102225.41;5045398;28;20034;-46
2022/05/07 02:00:05;;;;;;;2.45;2.17;;;;;;;21.03;47.71;102232.38;5044526;28;20025;-49
2022/05/07 02:02:30;;;;;;;2.50;2.03;;;;;;;21.02;47.78;102231.50;5046615;28;20056;-46
2022/05/07 02:04:55;;;;;;;2.85;2.22;;;;;;;21.00;47.57;102229.97;5078816;28;20037;-50
2022/05/07 02:07:21;;;;;;;3.90;2.60;;;;;;;21.02;47.50;102230.63;5046783;28;20030;-49
2022/05/07 02:09:46;;;;;;;2.85;1.90;;;;;;;21.00;47.56;102219.16;5046097;28;20033;-48
2022/05/07 02:12:11;;;;;;;2.38;1.75;;;;;;;21.01;47.70;102229.78;5046261;28;20030;-50
2022/05/07 02:14:36;;;;;;;2.83;2.03;;;;;;;21.01;47.39;102223.53;5045684;28;20030;-49
2022/05/07 02:17:02;;;;;;;2.45;1.90;;;;;;;21.00;47.45;102227.25;5046721;28;20061;-47
2022/05/07 02:19:27;;;;;;;2.03;1.80;;;;;;;21.01;47.45;102220.84;5046378;28;20030;-51
2022/05/07 02:21:53;;;;;;;2.22;1.92;;;;;;;21.00;47.66;102224.56;5048155;28;20029;-51
2022/05/07 02:24:18;;;;;;;2.13;1.70;;;;;;;20.99;47.77;102222.84;5063312;28;20017;-52
2022/05/07 02:26:43;;;;;;;1.70;1.60;;;;;;;20.99;47.36;102228.25;5046494;28;20029;-46
2022/05/07 02:29:09;;;;;;;1.70;1.50;;;;;;;20.99;47.67;102220.16;5045575;28;20112;-46
2022/05/07 02:31:35;;;;;;;2.05;1.85;;;;;;;20.98;47.43;102224.69;5046356;28;20032;-47
2022/05/07 02:34:00;;;;;;;2.03;1.55;;;;;;;20.97;47.27;102217.56;5046058;28;20021;-50
2022/05/07 02:36:25;;;;;;;2.00;1.67;;;;;;;20.99;47.61;102225.56;5046223;28;20085;-49
2022/05/07 02:38:50;;;;;;;1.70;1.58;;;;;;;20.97;47.54;102223.84;5045781;28;20025;-51
2022/05/07 02:44:00;;;;;;;1.77;1.45;;;;;;;20.96;46.91;102211.31;5045504;28;20041;-48
2022/05/07 02:46:25;;;;;;;2.33;1.90;;;;;;;20.96;47.52;102216.72;5045512;28;20033;-48
2022/05/07 02:48:50;;;;;;;2.05;1.67;;;;;;;20.97;47.29;102212.16;5045849;28;20043;-47
2022/05/07 02:51:16;;;;;;;2.08;1.90;;;;;;;20.95;47.47;102208.78;5045065;28;20035;-50
2022/05/07 02:53:41;;;;;;;2.08;1.67;;;;;;;20.96;47.59;102213.19;5045783;28;20088;-46
2022/05/07 02:56:07;;;;;;;1.65;1.55;;;;;;;20.95;47.57;102206.06;5045924;28;20497;-46
2022/05/07 02:58:32;;;;;;;1.42;1.30;;;;;;;20.92;47.26;102201.81;5045470;28;20089;-51
2022/05/07 03:00:58;;;;;;;2.00;1.70;;;;;;;20.92;47.11;102204.50;5045388;28;20088;-48
2022/05/07 03:03:23;;;;;;;1.77;1.60;;;;;;;20.94;47.47;102210.63;5044168;28;20026;-53
2022/05/07 03:05:49;;;;;;;2.05;1.80;;;;;;;20.94;47.18;102209.75;5045640;28;20029;-52
2022/05/07 03:08:14;;;;;;;1.88;1.67;;;;;;;20.93;47.18;102202.66;5045122;28;20029;-50
2022/05/07 03:10:39;;;;;;;2.25;1.70;;;;;;;20.93;47.15;102206.22;5045342;28;20048;-50
2022/05/07 03:13:04;;;;;;;1.90;1.67;;;;;;;20.94;47.43;102207.06;5045142;28;20021;-49
2022/05/07 03:15:30;;;;;;;2.40;1.75;;;;;;;20.92;47.05;102211.78;5043311;28;20030;-50
2022/05/07 03:17:55;;;;;;;1.80;1.58;;;;;;;20.91;47.19;102208.22;5045244;28;20026;-52
2022/05/07 03:20:20;;;;;;;2.72;1.50;;;;;;;20.91;47.04;102207.38;5045191;28;20057;-48
2022/05/07 03:22:45;;;;;;;1.85;1.65;;;;;;;20.91;47.43;102212.78;5054107;28;20029;-47
2022/05/07 03:25:12;;;;;;;1.63;1.38;;;;;;;20.91;47.04;102210.09;5064913;28;20025;-48
2022/05/07 03:27:37;;;;;;;2.08;1.80;;;;;;;20.90;47.46;102206.53;5065068;28;20029;-51
2022/05/07 03:30:04;;;;;;;1.40;1.30;;;;;;;20.89;47.03;102207.50;5064496;28;20100;-51
2022/05/07 03:32:29;;;;;;;1.73;1.50;;;;;;;20.87;46.95;102205.97;5065012;28;20479;-47
2022/05/07 03:34:57;;;;;;;1.88;1.67;;;;;;;20.87;47.23;102212.22;5063734;28;20089;-50
2022/05/07 03:37:22;;;;;;;2.38;1.75;;;;;;;20.89;47.08;102203.97;5064954;28;20041;-46
2022/05/07 03:39:47;;;;;;;2.08;1.80;;;;;;;20.88;47.28;102211.22;5062031;28;20032;-47
2022/05/07 03:42:13;;;;;;;1.98;1.50;;;;;;;20.87;47.14;102201.41;5044746;28;20041;-49
2022/05/07 03:44:38;;;;;;;2.17;1.85;;;;;;;20.87;46.96;102205.97;5042679;28;20639;-51
2022/05/07 03:47:03;;;;;;;1.92;1.73;;;;;;;20.87;47.22;102211.38;5044977;28;20479;-46
2022/05/07 03:49:28;;;;;;;1.63;1.45;;;;;;;20.86;47.26;102206.97;5044807;28;20032;-47
2022/05/07 03:54:38;;;;;;;2.97;2.05;;;;;;;20.85;47.36;102197.16;5044305;28;20079;-52
2022/05/07 03:57:03;;;;;;;1.98;1.77;;;;;;;20.84;47.36;102204.41;5044491;28;20030;-48
2022/05/07 03:59:29;;;;;;;2.20;1.75;;;;;;;20.84;47.01;102199.00;5042582;28;20026;-49
2022/05/07 04:01:54;;;;;;;1.58;1.48;;;;;;;20.83;47.09;102201.88;5044405;28;20040;-49
2022/05/07 04:04:19;;;;;;;2.13;1.77;;;;;;;20.81;47.07;102207.41;5044223;28;20036;-50
2022/05/07 04:06:46;;;;;;;1.90;1.70;;;;;;;20.81;46.98;102207.41;5047517;28;20026;-47
2022/05/07 04:09:11;;;;;;;2.83;1.73;;;;;;;20.82;46.87;102209.13;5043981;28;20509;-49
2022/05/07 04:11:36;;;;;;;2.03;1.67;;;;;;;20.82;46.92;102205.59;5044314;28;20033;-47
2022/05/07 04:14:01;;;;;;;2.03;1.80;;;;;;;20.82;47.05;102202.88;5043566;28;20029;-54
2022/05/07 04:16:27;;;;;;;1.83;1.60;;;;;;;20.80;46.96;102199.47;5043879;28;20033;-49
2022/05/07 04:18:52;;;;;;;2.25;2.05;;;;;;;20.81;47.37;102203.84;5044117;28;20115;-52
2022/05/07 04:21:17;;;;;;;1.65;1.52;;;;;;;20.80;47.08;102211.13;5042876;28;20022;-48
2022/05/07 04:23:42;;;;;;;2.17;1.70;;;;;;;20.79;46.79;102198.59;5060536;28;20036;-50
2022/05/07 04:26:07;;;;;;;1.95;1.73;;;;;;;20.80;46.86;102210.28;5063979;28;20036;-50
2022/05/07 04:28:33;;;;;;;1.95;1.55;;;;;;;20.77;47.20;102206.00;5063542;28;20028;-49
2022/05/07 04:30:58;;;;;;;1.60;1.40;;;;;;;20.79;46.82;102205.88;5062661;28;20039;-51
2022/05/07 04:33:26;;;;;;;1.80;1.52;;;;;;;20.78;47.19;102215.84;5043097;28;20045;-49
2022/05/07 04:35:51;;;;;;;2.17;1.75;;;;;;;20.78;47.29;102204.19;5037952;28;20053;-52
2022/05/07 04:38:16;;;;;;;2.03;1.67;;;;;;;20.78;46.94;102209.59;5040439;28;20056;-51
2022/05/07 04:40:41;;;;;;;2.13;1.45;;;;;;;20.77;46.90;102214.09;5040647;28;20487;-50
2022/05/07 04:43:07;;;;;;;1.48;1.33;;;;;;;20.78;47.01;102217.69;5040656;28;20025;-48
2022/05/07 04:45:34;;;;;;;2.03;1.83;;;;;;;20.78;46.96;102212.28;5041405;28;20134;-50
2022/05/07 04:47:59;;;;;;;1.70;1.40;;;;;;;20.77;46.89;102216.81;5029825;28;20022;-49
2022/05/07 04:50:24;;;;;;;1.70;1.58;;;;;;;20.77;47.27;102218.66;5024080;28;20109;-52
2022/05/07 04:52:49;;;;;;;2.08;1.65;;;;;;;20.76;46.94;102215.13;5028554;28;20029;-48
2022/05/07 04:55:14;;;;;;;2.00;1.67;;;;;;;20.77;46.95;102226.78;5038987;28;20029;-46
2022/05/07 04:57:40;;;;;;;2.35;1.92;;;;;;;20.76;47.25;102230.50;5040265;28;20089;-46
2022/05/07 05:00:06;;;;;;;2.00;1.80;;;;;;;20.76;47.33;102225.94;5041181;28;20041;-47
2022/05/07 05:02:31;;;;;;;1.67;1.58;;;;;;;20.73;47.25;102228.94;5036366;28;20034;-47
2022/05/07 05:04:57;;;;;;;2.45;2.08;;;;;;;20.76;47.25;102235.91;5037323;28;20030;-49
2022/05/07 05:07:22;;;;;;;2.35;1.73;;;;;;;20.75;47.33;102237.75;5041825;28;20033;-49
2022/05/07 05:09:47;;;;;;;1.50;1.38;;;;;;;20.74;47.34;102246.88;5039945;28;20108;-48
2022/05/07 05:12:12;;;;;;;2.00;1.58;;;;;;;20.70;47.03;102240.06;5037662;28;20087;-50
2022/05/07 05:17:22;;;;;;;1.98;1.65;;;;;;;20.75;47.15;102250.41;5040474;28;20032;-47
2022/05/07 05:19:47;;;;;;;2.33;1.80;;;;;;;20.73;47.34;102253.28;5039800;28;20022;-47
2022/05/07 05:22:12;;;;;;;2.08;1.90;;;;;;;20.74;47.46;102254.13;5044625;28;20474;-50
2022/05/07 05:24:38;;;;;;;2.45;1.80;;;;;;;20.74;47.10;102254.13;5040881;28;20021;-47
2022/05/07 05:27:03;;;;;;;1.83;1.65;;;;;;;20.73;47.33;102255.97;5044456;28;20478;-45
2022/05/07 05:29:28;;;;;;;1.80;1.67;;;;;;;20.72;47.53;102260.50;5037467;28;20029;-47
2022/05/07 05:31:54;;;;;;;1.80;1.65;;;;;;;20.73;47.29;102261.38;5041436;28;20025;-46
2022/05/07 05:34:19;;;;;;;2.03;1.45;;;;;;;20.74;47.71;102262.22;5038564;28;20044;-48
2022/05/07 05:36:44;;;;;;;1.80;1.70;;;;;;;20.74;47.69;102263.09;5025577;28;20057;-48
2022/05/07 05:39:09;;;;;;;2.35;1.88;;;;;;;20.72;47.33;102263.22;5046284;28;20025;-45
2022/05/07 05:41:35;;;;;;;2.53;1.90;;;;;;;20.73;47.42;102266.78;5044051;28;20028;-47
2022/05/07 05:44:01;;;;;;;1.77;1.67;;;;;;;20.73;47.43;102272.19;5044784;28;20057;-47
2022/05/07 05:46:28;;;;;;;1.60;1.50;;;;;;;20.71;47.44;102263.38;5034538;28;20034;-47
2022/05/07 05:48:53;;;;;;;2.00;1.70;;;;;;;20.68;47.72;102264.50;5041262;28;20470;-48
2022/05/07 05:51:18;;;;;;;2.22;1.90;;;;;;;20.71;47.69;102264.22;5046510;28;20037;-47
2022/05/07 05:53:43;;;;;;;1.52;1.40;;;;;;;20.72;47.85;102274.03;5043675;28;20092;-46
2022/05/07 05:56:08;;;;;;;1.50;1.40;;;;;;;20.72;47.43;102271.31;5043399;28;20073;-49
2022/05/07 05:58:35;;;;;;;1.83;1.60;;;;;;;20.71;47.72;102272.31;5046056;28;20025;-48
2022/05/07 06:01:02;;;;;;;1.77;1.52;;;;;;;20.74;47.82;102275.75;5037703;28;20080;-47
2022/05/07 06:03:28;;;;;;;1.90;1.70;;;;;;;20.73;47.81;102272.19;5043397;28;20068;-48
2022/05/07 06:05:53;;;;;;;2.72;2.15;;;;;;;20.72;47.76;102267.78;5043681;28;20017;-47
2022/05/07 06:08:18;;;;;;;2.20;1.88;;;;;;;20.72;47.82;102271.31;5046130;28;20410;-49
2022/05/07 06:10:44;;;;;;;1.85;1.75;;;;;;;20.72;47.55;102265.91;5046460;28;20505;-48
2022/05/07 06:13:09;;;;;;;2.17;1.98;;;;;;;20.74;47.48;102270.34;5061499;28;20025;-50
2022/05/07 06:15:34;;;;;;;2.85;2.17;;;;;;;20.74;47.56;102267.63;5045888;28;20037;-50
2022/05/07 06:17:59;;;;;;;2.00;1.80;;;;;;;20.76;46.92;102266.47;5044976;28;20047;-46
2022/05/07 06:20:25;;;;;;;2.30;2.10;;;;;;;20.77;47.35;102272.72;5048391;28;20033;-46
2022/05/07 06:22:50;;;;;;;2.50;2.30;;;;;;;20.77;47.12;102275.44;5046305;28;20029;-46
2022/05/07 06:28:01;;;;;;;2.25;1.98;;;;;;;20.77;47.35;102276.28;5042007;28;20059;-48
2022/05/07 06:30:26;;;;;;;2.95;1.95;;;;;;;20.78;47.11;102279.88;5037514;28;20017;-49
2022/05/07 06:32:52;;;;;;;3.08;2.33;;;;;;;20.78;47.44;102278.00;5045842;28;20092;-47
2022/05/07 06:35:17;;;;;;;2.53;2.20;;;;;;;20.77;47.41;102273.56;5040123;28;20045;-47
2022/05/07 06:37:47;;;;;;;2.40;2.15;;;;;;;20.78;46.99;102275.31;5025982;28;20042;-46
2022/05/07 06:40:13;;;;;;;3.13;1.80;;;;;;;20.80;47.23;102276.00;5025787;28;20026;-45
2022/05/07 06:42:39;;;;;;;2.33;2.00;;;;;;;20.82;46.97;102278.56;5025734;28;20030;-47
2022/05/07 06:45:05;;;;;;;2.65;2.40;;;;;;;20.79;47.15;102279.69;5029467;28;20060;-47
2022/05/07 06:47:31;;;;;;;2.50;1.80;;;;;;;20.82;47.13;102275.88;5045467;28;20034;-46
2022/05/07 06:49:56;;;;;;;2.08;1.80;;;;;;;20.81;47.43;102277.69;5042595;28;20359;-48
2022/05/07 06:52:21;;;;;;;2.80;2.13;;;;;;;20.80;46.98;102280.53;5038605;28;20025;-44
2022/05/07 06:54:47;;;;;;;1.60;1.50;;;;;;;20.81;47.16;102280.38;5045262;28;20034;-45
2022/05/07 06:57:12;;;;;;;2.55;2.20;;;;;;;20.80;46.74;102278.69;5045432;28;20022;-45
2022/05/07 06:59:37;;;;;;;2.72;2.10;;;;;;;20.83;46.58;102283.81;5045150;28;20437;-50
2022/05/07 07:02:03;;;;;;;2.58;1.95;;;;;;;20.83;46.75;102278.41;5045535;28;20022;-46
2022/05/07 07:04:28;;;;;;;2.55;2.03;;;;;;;20.85;46.66;102284.50;5045377;28;20056;-47
2022/05/07 07:06:54;;;;;;;3.67;2.55;;;;;;;20.85;46.72;102284.50;5045353;28;20037;-46
2022/05/07 07:09:19;;;;;;;2.78;2.05;;;;;;;20.84;46.82;102277.41;5045028;28;20025;-47
2022/05/07 07:11:44;;;;;;;1.98;1.70;;;;;;;20.84;47.08;102280.09;5045445;28;20051;-46
2022/05/07 07:14:10;;;;;;;2.10;1.75;;;;;;;20.82;47.24;102281.28;5044289;28;20032;-46
2022/05/07 07:16:36;;;;;;;1.73;1.58;;;;;;;20.82;47.19;102284.81;5045100;28;20029;-49
2022/05/07 07:19:01;;;;;;;1.50;1.35;;;;;;;20.83;46.99;102282.97;5045140;28;20028;-45
2022/05/07 07:21:26;;;;;;;1.67;1.52;;;;;;;20.80;46.95;102281.41;5045264;28;20056;-47
2022/05/07 07:23:52;;;;;;;1.77;1.55;;;;;;;20.82;47.09;102283.97;5062774;28;20025;-50
2022/05/07 07:26:17;;;;;;;2.00;1.75;;;;;;;20.83;46.97;102291.06;5065072;28;20125;-46
2022/05/07 07:28:43;;;;;;;2.15;1.33;;;;;;;20.84;46.85;102290.06;5064530;28;20033;-48
2022/05/07 07:31:09;;;;;;;1.20;1.00;;;;;;;20.84;46.91;102290.91;5064804;28;20033;-48
2022/05/07 07:33:35;;;;;;;1.98;1.25;;;;;;;20.85;46.61;102289.91;5064842;28;20043;-45
2022/05/07 07:36:00;;;;;;;1.33;1.10;;;;;;;20.86;47.10;102288.94;5064676;28;20041;-47
2022/05/07 07:38:26;;;;;;;1.63;1.45;;;;;;;20.86;47.10;102294.34;5064339;28;20071;-46
2022/05/07 07:40:51;;;;;;;1.17;1.05;;;;;;;20.87;46.74;102289.78;5064743;28;20100;-46
2022/05/07 07:43:18;;;;;;;1.23;1.10;;;;;;;20.87;46.50;102296.03;5064251;28;20462;-46
2022/05/07 07:48:27;;;;;;;1.50;1.10;;;;;;;20.89;46.92;102298.59;5044360;28;20063;-46
2022/05/07 07:50:53;;;;;;;1.27;1.17;;;;;;;20.90;46.81;102294.91;5054601;28;20024;-51
2022/05/07 07:53:22;;;;;;;1.10;1.00;;;;;;;20.88;46.72;102286.06;5064560;28;20029;-47
2022/05/07 07:55:47;;;;;;;1.20;1.10;;;;;;;20.90;46.45;102300.31;5047411;28;20067;-47
2022/05/07 07:58:12;;;;;;;1.13;0.98;;;;;;;20.91;46.45;102288.47;5044115;28;20469;-51
2022/05/07 08:00:38;;;;;;;1.23;1.00;;;;;;;20.91;46.46;102300.16;5044003;28;20029;-46
2022/05/07 08:03:07;;;;;;;1.13;1.02;;;;;;;20.92;46.53;102295.59;5044209;28;20029;-46
2022/05/07 08:05:34;;;;;;;0.93;0.90;;;;;;;20.92;46.83;102303.69;5042900;28;20025;-46
2022/05/07 08:13:36;;;;;;;2.17;1.10;;;;;;;20.93;46.37;102308.94;5043957;28;20099;-48
2022/05/07 08:16:03;;;;;;;1.00;0.85;;;;;;;20.93;46.65;102308.94;5043949;28;20465;-46
2022/05/07 08:18:28;;;;;;;1.27;0.90;;;;;;;20.94;46.30;102307.97;5044004;28;20510;-48
2022/05/07 08:20:54;;;;;;;1.30;1.02;;;;;;;20.96;46.23;102303.25;5044068;28;20039;-49
2022/05/07 08:23:19;;;;;;;1.60;1.05;;;;;;;20.97;46.33;102298.69;5057419;28;20033;-49
2022/05/07 08:25:45;;;;;;;1.58;1.10;;;;;;;20.99;46.62;102306.69;5054024;28;20045;-47
2022/05/07 08:28:10;;;;;;;1.40;1.30;;;;;;;21.00;46.57;102309.22;5043616;28;20034;-47
2022/05/07 08:30:39;;;;;;;1.92;1.00;;;;;;;21.00;46.55;102308.38;5043139;28;20592;-46
2022/05/07 08:33:05;;;;;;;1.10;1.00;;;;;;;21.02;46.42;102315.31;5044026;28;20025;-45
2022/05/07 08:35:30;;;;;;;1.10;1.00;;;;;;;21.05;46.24;102312.31;5043956;28;20125;-46
2022/05/07 08:37:56;;;;;;;1.25;1.08;;;;;;;21.06;46.39;102316.72;5043456;28;20700;-47
2022/05/07 08:40:22;;;;;;;1.10;1.00;;;;;;;21.08;46.33;102319.28;5043590;28;20106;-45
2022/05/07 08:42:47;;;;;;;1.08;0.90;;;;;;;21.09;46.08;102315.59;5043532;28;20029;-49
2022/05/07 08:45:13;;;;;;;1.27;1.17;;;;;;;21.09;46.08;102315.59;5042883;28;20060;-48
2022/05/07 08:47:39;;;;;;;1.58;1.13;;;;;;;21.09;46.38;102319.13;5043607;28;20081;-47
2022/05/07 08:50:09;;;;;;;1.15;1.05;;;;;;;21.11;46.12;102327.09;5043310;28;20032;-46
2022/05/07 08:52:39;;;;;;;1.38;1.17;;;;;;;21.10;45.96;102315.44;5043754;28;20032;-48
2022/05/07 08:55:05;;;;;;;1.10;0.90;;;;;;;21.10;46.19;102315.44;5042714;28;20546;-45
2022/05/07 08:57:30;;;;;;;1.50;1.17;;;;;;;21.10;46.26;102320.84;5043305;28;20055;-47
2022/05/07 08:59:56;;;;;;;1.25;1.10;;;;;;;21.10;46.06;102314.56;5042843;28;20032;-45
2022/05/07 09:02:21;;;;;;;1.63;0.90;;;;;;;21.10;46.22;102315.44;5043424;28;20030;-48
2022/05/07 09:04:54;;;;;;;1.20;1.10;;;;;;;21.11;45.91;102318.97;5043338;28;20029;-45
2022/05/07 09:07:19;;;;;;;1.25;0.90;;;;;;;21.06;46.09;102311.31;5043631;28;20048;-46
2022/05/07 09:09:50;;;;;;;0.98;0.80;;;;;;;21.11;46.21;102322.56;5042978;28;20081;-46
2022/05/07 09:12:26;;;;;;;1.48;1.10;;;;;;;21.11;46.04;102319.84;5042765;28;20083;-46
2022/05/07 09:14:51;;;;;;;1.88;1.13;;;;;;;21.10;46.25;102325.41;5042648;28;20465;-47
2022/05/07 09:17:20;;;;;;;1.25;1.05;;;;;;;21.12;45.91;102318.84;5043403;28;20025;-47
2022/05/07 09:19:45;;;;;;;0.80;0.80;;;;;;;21.08;46.06;102319.28;5043189;28;20057;-46
2022/05/07 09:22:11;;;;;;;1.10;1.00;;;;;;;21.11;46.15;102316.28;5045996;28;21077;-49
2022/05/07 09:24:37;;;;;;;1.42;0.98;;;;;;;21.11;46.14;102314.44;5044792;28;20025;-45
2022/05/07 09:27:04;;;;;;;1.20;0.98;;;;;;;21.11;45.83;102316.28;5055997;28;20029;-46
2022/05/07 09:29:30;;;;;;;1.42;1.00;;;;;;;21.12;46.02;102315.31;5042374;28;20029;-45
2022/05/07 09:32:06;;;;;;;1.17;1.00;;;;;;;21.12;45.78;102320.72;5043287;28;20048;-48
2022/05/07 09:37:20;;;;;;;0.95;0.90;;;;;;;21.10;46.28;102312.72;5043038;28;20499;-47
2022/05/07 09:39:54;;;;;;;1.10;0.93;;;;;;;21.10;46.00;102314.56;5041297;28;20018;-48
2022/05/07 09:42:21;;;;;;;0.82;0.82;;;;;;;21.09;45.84;102316.44;5042843;28;20085;-47
2022/05/07 09:44:47;;;;;;;1.23;0.90;;;;;;;21.10;45.86;102314.56;5042261;28;20455;-45
2022/05/07 09:47:13;;;;;;;0.82;0.82;;;;;;;21.12;45.89;102316.16;5043399;28;20040;-46
2022/05/07 09:50:20;;;;;;;0.60;0.60;;;;;;;21.14;45.85;102314.13;5042952;28;20033;-49
2022/05/07 09:52:28;;;;;;;1.05;0.88;;;;;;;21.10;46.33;102310.03;5043184;28;20112;-50
2022/05/07 09:57:38;;;;;;;0.95;0.88;;;;;;;21.14;45.83;102311.44;5041740;28;20028;-49
2022/05/07 10:00:07;;;;;;;1.00;0.93;;;;;;;21.14;45.75;102315.97;5033869;28;20734;-46
2022/05/07 10:03:10;;;;;;;1.08;0.98;;;;;;;21.17;45.91;102318.41;5057819;28;20136;-51
2022/05/07 10:05:44;;;;;;;1.20;1.10;;;;;;;21.14;45.97;102318.69;5043107;28;20430;-49
2022/05/07 10:08:48;;;;;;;1.10;1.00;;;;;;;21.16;45.97;102314.84;5042705;28;20037;-47
2022/05/07 10:11:15;;;;;;;1.20;1.00;;;;;;;21.16;45.91;102316.72;5040947;28;20025;-48
2022/05/07 10:13:51;;;;;;;1.50;1.17;;;;;;;21.18;46.11;102320.09;5039663;28;20045;-49
2022/05/07 10:16:21;;;;;;;0.98;0.90;;;;;;;21.17;45.88;102324.66;5042755;28;20156;-48
2022/05/07 10:18:46;;;;;;;1.25;1.00;;;;;;;21.18;45.96;102318.25;5040943;28;20025;-47
2022/05/07 10:21:18;;;;;;;1.10;1.00;;;;;;;21.19;46.28;102314.53;5043572;28;20521;-47
2022/05/07 10:23:56;;;;;;;1.00;0.90;;;;;;;21.19;46.28;102319.94;5075241;28;20034;-49
2022/05/07 10:26:24;;;;;;;1.33;1.13;;;;;;;21.20;46.24;102316.25;5043961;28;20033;-47
2022/05/07 10:28:50;;;;;;;1.02;0.93;;;;;;;21.21;45.83;102323.34;5043471;28;20033;-49
2022/05/07 10:31:22;;;;;;;1.20;1.10;;;;;;;21.21;46.24;102314.41;5043847;28;20025;-50
2022/05/07 10:33:49;;;;;;;1.15;1.00;;;;;;;21.18;46.11;102309.28;5040389;28;20106;-49
2022/05/07 10:36:16;;;;;;;1.35;1.20;;;;;;;21.23;46.31;102315.94;5043775;28;20044;-49
2022/05/07 10:38:42;;;;;;;1.10;0.82;;;;;;;21.25;45.90;102315.81;5043652;28;20868;-47
2022/05/07 10:41:17;;;;;;;1.40;1.10;;;;;;;21.26;46.05;102303.97;5044030;28;20406;-51
2022/05/07 10:44:00;;;;;;;0.80;0.80;;;;;;;21.27;46.04;102305.66;5043235;28;20041;-47
2022/05/07 10:46:25;;;;;;;1.10;1.00;;;;;;;21.25;45.99;102301.44;5043496;28;20032;-53
2022/05/07 10:48:56;;;;;;;1.02;0.93;;;;;;;21.27;46.10;102300.25;5042086;28;20033;-50
2022/05/07 10:51:27;;;;;;;1.02;0.82;;;;;;;21.28;46.15;102301.09;5040245;28;20482;-48
2022/05/07 10:53:52;;;;;;;1.15;0.90;;;;;;;21.28;45.99;102296.56;5040606;28;20056;-49
2022/05/07 10:56:20;;;;;;;1.50;1.02;;;;;;;21.31;46.12;102298.09;5042338;28;20437;-50
2022/05/07 10:58:46;;;;;;;1.23;1.00;;;;;;;21.30;46.08;102296.41;5041465;28;20037;-49
2022/05/07 11:01:11;;;;;;;1.00;0.90;;;;;;;21.30;46.44;102294.56;5039024;28;20059;-46
2022/05/07 11:03:36;;;;;;;1.27;0.90;;;;;;;21.31;46.41;102298.09;5041936;28;20025;-45
2022/05/07 11:06:02;;;;;;;1.95;1.67;;;;;;;21.29;46.26;102295.56;5042705;28;20033;-49
2022/05/07 11:08:30;;;;;;;0.82;0.80;;;;;;;21.30;46.19;102293.72;5042639;28;20033;-45
2022/05/07 11:11:08;;;;;;;1.50;1.20;;;;;;;21.30;46.40;102297.25;5042597;28;20025;-44
2022/05/07 11:13:38;;;;;;;1.35;1.10;;;;;;;21.32;46.39;102302.53;5042990;28;20044;-50
2022/05/07 11:16:07;;;;;;;1.45;1.13;;;;;;;21.31;46.57;102292.69;5042710;28;20025;-43
2022/05/07 11:18:34;;;;;;;1.55;1.20;;;;;;;21.32;46.08;102297.97;5043056;28;20021;-48
2022/05/07 11:21:01;;;;;;;1.90;1.40;;;;;;;21.34;46.30;102296.00;5043167;28;20695;-49
2022/05/07 11:23:26;;;;;;;1.77;1.58;;;;;;;21.34;46.35;102293.28;5044492;28;20025;-45
2022/05/07 11:25:52;;;;;;;2.85;1.83;;;;;;;21.35;46.24;102296.84;5036320;28;20028;-44
2022/05/07 11:28:17;;;;;;;3.10;1.90;;;;;;;21.35;46.64;102299.53;5042009;28;20045;-47
2022/05/07 11:30:50;;;;;;;2.67;2.13;;;;;;;21.36;46.31;102293.97;5040255;28;20067;-45
2022/05/07 11:33:22;;;;;;;3.17;2.08;;;;;;;21.36;46.25;102293.13;5041925;28;20033;-49
2022/05/07 11:35:47;;;;;;;3.53;2.25;;;;;;;21.36;46.29;102285.84;5042549;28;20029;-49
2022/05/07 11:38:13;;;;;;;3.65;2.55;;;;;;;21.35;46.37;102281.44;5040721;28;20046;-49
2022/05/07 11:40:38;;;;;;;4.43;2.65;;;;;;;21.37;46.53;102290.28;5042147;28;20124;-45
2022/05/07 11:45:47;;;;;;;3.92;2.60;;;;;;;21.39;46.87;102290.97;5040300;28;20028;-50
2022/05/07 11:48:14;;;;;;;4.07;2.60;;;;;;;21.41;46.58;102296.25;5042206;28;20415;-49
2022/05/07 11:50:49;;;;;;;4.90;3.10;;;;;;;21.41;46.47;102298.97;5042659;28;20045;-48
2022/05/07 11:53:17;;;;;;;4.90;3.15;;;;;;;21.41;46.66;102299.81;5042413;28;20590;-46